Time;durP1;ratioP1;P1;durP2;ratioP2;P2;SDS_P1;SDS_P2;PMS_P1;PMS_P2;Temp;Humidity;BMP_temperature;BMP_pressure;BME280_temperature;BME280_humidity;BME280_pressure;Samples;Min_cycle;Max_cycle;Signal;HPM_P1;HPM_P2
2022/02/23 00:01:16;;;;;;;5.93;2.33;;;8.00;99.90;;;;;;5039657;28;21143;-42
2022/02/23 00:03:42;;;;;;;8.03;3.20;;;7.80;99.90;;;;;;5016530;28;20433;-42
2022/02/23 00:06:08;;;;;;;7.97;3.00;;;7.70;99.90;;;;;;5031246;28;20186;-40
2022/02/23 00:08:34;;;;;;;7.93;3.27;;;7.50;99.90;;;;;;5031177;28;20680;-40
2022/02/23 00:11:00;;;;;;;8.47;2.83;;;7.40;99.90;;;;;;5031064;28;20213;-40
2022/02/23 00:13:27;;;;;;;8.80;2.50;;;7.50;99.90;;;;;;5029617;28;20425;-40
2022/02/23 00:15:56;;;;;;;8.87;2.70;;;7.50;99.90;;;;;;5028405;28;20429;-39
2022/02/23 00:18:22;;;;;;;6.40;2.50;;;7.50;99.90;;;;;;5022117;28;20432;-41
2022/02/23 00:20:48;;;;;;;9.50;2.97;;;7.50;99.90;;;;;;5030272;28;20936;-40
2022/02/23 00:23:14;;;;;;;11.50;3.33;;;7.50;99.90;;;;;;5030568;28;20198;-40
2022/02/23 00:25:41;;;;;;;7.23;2.27;;;7.50;99.90;;;;;;5031199;28;20581;-40
2022/02/23 00:28:07;;;;;;;9.17;3.30;;;7.50;99.90;;;;;;5029789;28;20909;-40
2022/02/23 00:30:33;;;;;;;10.30;3.47;;;7.40;99.90;;;;;;5030301;28;20432;-39
2022/02/23 00:32:58;;;;;;;6.77;2.97;;;7.40;99.90;;;;;;5022000;28;20433;-41
2022/02/23 00:35:24;;;;;;;8.43;2.53;;;7.40;99.90;;;;;;5028224;28;20198;-40
2022/02/23 00:37:50;;;;;;;10.10;4.27;;;7.50;99.90;;;;;;5030381;28;20197;-41
2022/02/23 00:40:15;;;;;;;5.50;2.70;;;7.60;99.90;;;;;;5028650;28;20194;-42
2022/02/23 00:42:41;;;;;;;9.10;2.90;;;7.40;99.90;;;;;;5030660;28;20706;-39
2022/02/23 00:45:07;;;;;;;15.30;3.33;;;7.30;99.90;;;;;;5030586;28;20206;-41
2022/02/23 00:47:33;;;;;;;10.13;2.60;;;7.10;99.90;;;;;;5022748;28;20190;-40
2022/02/23 00:49:59;;;;;;;11.60;2.70;;;7.30;99.90;;;;;;5024296;28;20425;-40
2022/02/23 00:52:24;;;;;;;8.13;3.40;;;7.20;99.90;;;;;;5030561;28;20205;-40
2022/02/23 00:54:50;;;;;;;11.63;3.03;;;7.30;99.90;;;;;;5031080;28;20205;-41
2022/02/23 00:57:16;;;;;;;7.67;3.03;;;7.30;99.90;;;;;;5030573;28;20286;-40
2022/02/23 00:59:43;;;;;;;9.63;3.70;;;7.40;99.90;;;;;;5030353;28;20248;-40
2022/02/23 01:02:09;;;;;;;7.57;2.90;;;7.40;99.90;;;;;;5027416;28;20752;-40
2022/02/23 01:04:34;;;;;;;12.90;3.37;;;7.40;99.90;;;;;;5022669;28;20468;-42
2022/02/23 01:07:00;;;;;;;8.63;3.20;;;7.30;99.90;;;;;;5030159;28;20249;-40
2022/02/23 01:09:26;;;;;;;13.27;3.10;;;7.20;99.90;;;;;;5030667;28;20198;-40
2022/02/23 01:11:52;;;;;;;12.83;3.30;;;7.10;99.90;;;;;;5029853;28;20818;-43
2022/02/23 01:14:17;;;;;;;8.60;2.83;;;7.10;99.90;;;;;;5029643;28;20294;-40
2022/02/23 01:16:43;;;;;;;10.90;3.50;;;7.30;99.90;;;;;;5030206;28;20244;-40
2022/02/23 01:19:09;;;;;;;12.60;3.60;;;7.40;99.90;;;;;;5021319;28;20202;-39
2022/02/23 01:21:35;;;;;;;10.43;3.70;;;7.30;99.90;;;;;;5029046;28;20210;-40
2022/02/23 01:24:01;;;;;;;8.17;4.07;;;7.30;99.90;;;;;;5030470;28;20456;-40
2022/02/23 01:26:27;;;;;;;10.67;4.30;;;7.10;99.90;;;;;;5030157;28;20575;-40
2022/02/23 01:28:52;;;;;;;9.90;3.40;;;7.10;99.90;;;;;;5030057;28;20512;-41
2022/02/23 01:31:18;;;;;;;9.40;4.33;;;7.20;99.90;;;;;;5029574;28;20217;-41
2022/02/23 01:33:44;;;;;;;12.63;3.90;;;7.10;99.90;;;;;;5021868;28;20229;-40
2022/02/23 01:36:10;;;;;;;7.10;3.40;;;7.20;99.90;;;;;;5029735;28;20187;-42
2022/02/23 01:38:35;;;;;;;11.37;3.60;;;7.00;99.90;;;;;;5030085;28;20213;-41
2022/02/23 01:41:01;;;;;;;9.80;3.83;;;7.10;99.90;;;;;;5029119;28;20216;-42
2022/02/23 01:43:28;;;;;;;10.30;3.80;;;7.10;99.90;;;;;;5008732;28;20253;-42
2022/02/23 01:45:54;;;;;;;11.03;4.00;;;7.00;99.90;;;;;;5028157;28;20190;-40
2022/02/23 01:48:20;;;;;;;12.30;4.07;;;7.00;99.90;;;;;;5019986;28;20430;-41
2022/02/23 01:50:46;;;;;;;9.07;4.67;;;7.00;99.90;;;;;;5027257;28;20932;-43
2022/02/23 01:53:12;;;;;;;9.10;4.03;;;6.80;99.90;;;;;;5029498;28;20240;-40
2022/02/23 01:55:37;;;;;;;8.37;3.90;;;6.90;99.90;;;;;;5028616;28;20854;-41
2022/02/23 01:58:04;;;;;;;11.07;3.47;;;6.90;99.90;;;;;;5029447;28;20441;-40
2022/02/23 02:00:30;;;;;;;10.50;3.50;;;6.80;99.90;;;;;;5028864;28;20281;-41
2022/02/23 02:02:55;;;;;;;9.07;3.30;;;6.80;99.90;;;;;;5024678;28;20561;-40
2022/02/23 02:05:21;;;;;;;13.43;4.07;;;6.70;99.90;;;;;;5020491;28;20189;-40
2022/02/23 02:07:47;;;;;;;7.40;3.33;;;6.70;99.90;;;;;;5029520;28;20193;-39
2022/02/23 02:10:13;;;;;;;10.97;4.03;;;6.60;99.90;;;;;;5028572;28;20188;-40
2022/02/23 02:12:39;;;;;;;14.43;3.23;;;6.50;99.90;;;;;;5029289;28;20924;-40
2022/02/23 02:15:06;;;;;;;10.77;3.83;;;6.50;99.90;;;;;;5028371;28;20532;-42
2022/02/23 02:17:31;;;;;;;7.83;3.20;;;6.50;99.90;;;;;;5028519;28;20417;-40
2022/02/23 02:19:57;;;;;;;8.17;3.70;;;6.70;99.90;;;;;;5017463;28;20946;-40
2022/02/23 02:22:28;;;;;;;12.63;3.77;;;6.50;99.90;;;;;;5029082;28;20468;-42
2022/02/23 02:24:56;;;;;;;5.73;2.60;;;6.50;99.90;;;;;;5029231;28;20189;-40
2022/02/23 02:27:22;;;;;;;12.53;3.10;;;6.60;99.90;;;;;;5029286;28;20420;-40
2022/02/23 02:29:48;;;;;;;11.00;3.73;;;6.50;99.90;;;;;;5028785;28;20417;-40
2022/02/23 02:32:17;;;;;;;9.20;3.13;;;6.50;99.90;;;;;;5028078;28;20471;-39
2022/02/23 02:34:44;;;;;;;12.63;3.23;;;6.50;99.90;;;;;;5018592;28;20517;-40
2022/02/23 02:37:11;;;;;;;7.93;2.90;;;6.30;99.90;;;;;;5029188;28;20412;-39
2022/02/23 02:39:37;;;;;;;10.17;2.83;;;6.60;99.90;;;;;;5027396;28;20512;-42
2022/02/23 02:42:03;;;;;;;8.23;3.10;;;6.50;99.90;;;;;;5028685;28;20560;-41
2022/02/23 02:44:29;;;;;;;6.90;3.00;;;6.40;99.90;;;;;;5027660;28;20186;-40
2022/02/23 02:46:54;;;;;;;11.17;2.87;;;6.50;99.90;;;;;;5029026;28;21045;-40
2022/02/23 02:49:20;;;;;;;9.13;2.37;;;6.60;99.90;;;;;;5017930;28;20552;-42
2022/02/23 02:51:47;;;;;;;15.93;3.80;;;6.20;99.90;;;;;;5028316;28;20669;-39
2022/02/23 02:54:13;;;;;;;8.80;3.17;;;6.20;99.90;;;;;;5028878;28;20927;-40
2022/02/23 02:56:40;;;;;;;10.10;2.40;;;6.40;99.90;;;;;;5028536;28;20417;-40
2022/02/23 02:59:07;;;;;;;7.93;2.70;;;6.30;99.90;;;;;;5016137;28;20273;-42
2022/02/23 03:01:34;;;;;;;10.43;3.47;;;6.10;99.90;;;;;;5028019;28;20797;-40
2022/02/23 03:04:01;;;;;;;8.40;2.43;;;6.20;99.90;;;;;;5023115;28;20464;-40
2022/02/23 03:06:27;;;;;;;12.53;2.60;;;6.10;99.90;;;;;;5026538;28;20433;-40
2022/02/23 03:08:54;;;;;;;5.50;2.13;;;6.20;99.90;;;;;;5028770;28;20414;-41
2022/02/23 03:11:21;;;;;;;10.77;3.00;;;6.00;99.90;;;;;;5028249;28;20421;-41
2022/02/23 03:13:47;;;;;;;7.10;2.10;;;6.10;99.90;;;;;;5028677;28;20417;-40
2022/02/23 03:16:14;;;;;;;10.53;3.00;;;5.90;99.90;;;;;;5027809;28;20782;-40
2022/02/23 03:18:40;;;;;;;7.53;2.53;;;6.20;99.90;;;;;;5021706;28;20486;-40
2022/02/23 03:21:06;;;;;;;8.03;3.00;;;5.90;99.90;;;;;;5023228;28;20882;-43
2022/02/23 03:23:32;;;;;;;12.43;3.10;;;6.20;99.90;;;;;;5028710;28;20773;-40
2022/02/23 03:25:58;;;;;;;7.33;2.97;;;6.00;99.90;;;;;;5028922;28;20418;-39
2022/02/23 03:28:25;;;;;;;7.50;2.83;;;6.00;99.90;;;;;;5028670;28;20978;-41
2022/02/23 03:30:51;;;;;;;7.53;2.33;;;6.10;99.90;;;;;;5027766;28;20182;-40
2022/02/23 03:33:17;;;;;;;11.03;2.77;;;6.00;99.90;;;;;;5024666;28;20417;-41
2022/02/23 03:35:44;;;;;;;8.10;2.67;;;6.00;99.90;;;;;;5022149;28;20467;-40
2022/02/23 03:38:11;;;;;;;8.73;2.40;;;6.00;99.90;;;;;;5028746;28;20982;-41
2022/02/23 03:40:37;;;;;;;8.60;3.17;;;6.20;99.90;;;;;;5027636;28;20524;-40
2022/02/23 03:43:03;;;;;;;10.03;2.97;;;6.10;99.90;;;;;;5029673;28;20469;-40
2022/02/23 03:45:30;;;;;;;8.13;2.90;;;6.10;99.90;;;;;;5031789;28;20934;-41
2022/02/23 03:47:56;;;;;;;11.50;3.00;;;5.90;99.90;;;;;;5031067;28;20449;-40
2022/02/23 03:50:22;;;;;;;12.17;3.87;;;6.20;99.90;;;;;;5021681;28;20464;-40
2022/02/23 03:52:48;;;;;;;13.73;2.87;;;6.20;99.90;;;;;;5032251;28;20421;-40
2022/02/23 03:55:14;;;;;;;9.63;2.10;;;5.90;99.90;;;;;;5031873;28;20931;-41
2022/02/23 03:57:40;;;;;;;8.70;2.57;;;6.00;99.90;;;;;;5031952;28;20209;-41
2022/02/23 04:00:09;;;;;;;7.30;2.70;;;6.10;99.90;;;;;;5031208;28;21166;-40
2022/02/23 04:02:35;;;;;;;8.70;2.73;;;6.00;99.90;;;;;;5030426;28;20220;-39
2022/02/23 04:05:01;;;;;;;9.37;2.33;;;5.90;99.90;;;;;;5023099;28;20935;-39
2022/02/23 04:07:27;;;;;;;9.13;3.17;;;5.80;99.90;;;;;;5030152;28;20181;-40
2022/02/23 04:09:53;;;;;;;12.10;3.10;;;6.00;99.90;;;;;;5029855;28;20421;-40
2022/02/23 04:12:19;;;;;;;7.10;2.70;;;5.80;99.90;;;;;;5031425;28;20479;-40
2022/02/23 04:14:46;;;;;;;8.20;2.37;;;5.90;99.90;;;;;;5030663;28;21010;-40
2022/02/23 04:17:12;;;;;;;5.63;2.30;;;5.80;99.90;;;;;;5031579;28;20479;-39
2022/02/23 04:19:38;;;;;;;8.87;2.57;;;5.70;99.90;;;;;;5022157;28;20490;-41
2022/02/23 04:22:05;;;;;;;10.13;3.30;;;5.60;99.90;;;;;;5031043;28;20818;-40
2022/02/23 04:24:32;;;;;;;10.23;3.43;;;5.70;99.90;;;;;;5031417;28;20444;-39
2022/02/23 04:26:59;;;;;;;11.80;3.00;;;5.80;99.90;;;;;;5031222;28;21054;-42
2022/02/23 04:29:24;;;;;;;11.00;4.10;;;5.80;99.90;;;;;;5030041;28;20428;-42
2022/02/23 04:31:50;;;;;;;16.57;3.53;;;5.60;99.90;;;;;;5030937;28;20413;-41
2022/02/23 04:34:16;;;;;;;9.20;3.50;;;5.60;99.90;;;;;;5026100;28;20183;-40
2022/02/23 04:36:41;;;;;;;14.97;4.53;;;5.60;99.90;;;;;;5024866;28;20190;-41
2022/02/23 04:39:08;;;;;;;6.83;2.57;;;5.50;99.90;;;;;;5030917;28;20248;-43
2022/02/23 04:41:34;;;;;;;7.47;2.90;;;5.50;99.90;;;;;;5030361;28;20206;-40
2022/02/23 04:44:01;;;;;;;15.20;3.93;;;5.60;99.90;;;;;;5030872;28;20424;-39
2022/02/23 04:46:27;;;;;;;8.50;3.07;;;5.60;99.90;;;;;;5031314;28;20421;-39
2022/02/23 04:48:53;;;;;;;14.13;3.80;;;5.50;99.90;;;;;;5027677;28;20515;-41
2022/02/23 04:51:25;;;;;;;10.47;2.93;;;5.60;99.90;;;;;;5022083;28;20179;-40
2022/02/23 04:53:52;;;;;;;8.57;3.63;;;5.50;99.90;;;;;;5030182;28;20433;-42
2022/02/23 04:56:18;;;;;;;9.07;3.00;;;5.40;99.90;;;;;;5030447;28;20421;-40
2022/02/23 04:58:44;;;;;;;8.70;3.40;;;5.50;99.90;;;;;;5030632;28;20460;-45
2022/02/23 05:01:11;;;;;;;10.80;3.57;;;5.50;99.90;;;;;;5030265;28;20456;-42
2022/02/23 05:03:37;;;;;;;9.30;3.57;;;5.30;99.90;;;;;;5030558;28;20555;-40
2022/02/23 05:06:03;;;;;;;22.10;5.50;;;5.60;99.90;;;;;;5024573;28;20516;-40
2022/02/23 05:08:29;;;;;;;5.97;2.80;;;5.50;99.90;;;;;;5030422;28;20414;-40
2022/02/23 05:10:58;;;;;;;7.40;3.30;;;5.40;99.90;;;;;;5029729;28;20424;-40
2022/02/23 05:13:27;;;;;;;12.40;3.57;;;5.70;99.90;;;;;;5030526;28;20448;-40
2022/02/23 05:15:58;;;;;;;8.87;3.30;;;5.50;99.90;;;;;;5029658;28;20931;-40
2022/02/23 05:18:27;;;;;;;7.30;3.20;;;5.50;99.90;;;;;;5030549;28;20425;-40
2022/02/23 05:20:53;;;;;;;8.50;2.97;;;5.60;99.90;;;;;;5022430;28;20448;-39
2022/02/23 05:23:19;;;;;;;9.43;3.47;;;5.40;99.90;;;;;;5028521;28;20411;-42
2022/02/23 05:25:44;;;;;;;10.70;4.07;;;5.40;99.90;;;;;;5027700;28;20417;-39
2022/02/23 05:28:10;;;;;;;10.73;3.07;;;5.50;99.90;;;;;;5024466;28;20182;-41
2022/02/23 05:30:36;;;;;;;10.50;4.10;;;5.50;99.90;;;;;;5021661;28;20286;-40
2022/02/23 05:33:01;;;;;;;11.43;4.07;;;5.40;99.90;;;;;;5029952;28;20181;-39
2022/02/23 05:35:27;;;;;;;10.93;3.23;;;5.30;99.90;;;;;;5019969;28;20202;-41
2022/02/23 05:37:53;;;;;;;7.20;3.00;;;5.60;99.90;;;;;;5029630;28;20564;-41
2022/02/23 05:40:20;;;;;;;8.40;2.87;;;5.50;99.90;;;;;;5027505;28;20210;-39
2022/02/23 05:42:46;;;;;;;10.37;3.50;;;5.50;99.90;;;;;;5029714;28;20233;-40
2022/02/23 05:45:12;;;;;;;6.93;2.90;;;5.50;99.90;;;;;;5030010;28;20425;-40
2022/02/23 05:47:38;;;;;;;6.93;3.60;;;5.40;99.90;;;;;;5028522;28;20417;-41
2022/02/23 05:50:04;;;;;;;11.90;4.80;;;5.30;99.90;;;;;;5022081;28;20564;-40
2022/02/23 05:52:30;;;;;;;12.37;4.33;;;5.20;99.90;;;;;;5028058;28;20183;-41
2022/02/23 05:54:56;;;;;;;9.23;3.33;;;5.40;99.90;;;;;;5029887;28;20897;-41
2022/02/23 05:57:22;;;;;;;10.30;3.10;;;5.50;99.90;;;;;;5029532;28;20214;-41
2022/02/23 05:59:48;;;;;;;9.70;3.93;;;5.40;99.90;;;;;;5029154;28;20968;-39
2022/02/23 06:02:14;;;;;;;12.63;3.50;;;5.20;99.90;;;;;;5029562;28;20212;-39
2022/02/23 06:04:40;;;;;;;8.17;3.30;;;5.40;99.90;;;;;;5024487;28;20438;-40
2022/02/23 06:07:06;;;;;;;11.87;3.90;;;5.30;99.90;;;;;;5026154;28;20417;-41
2022/02/23 06:09:33;;;;;;;12.50;3.97;;;5.40;99.90;;;;;;5029367;28;20220;-39
2022/02/23 06:11:59;;;;;;;8.77;3.17;;;5.30;99.90;;;;;;5029280;28;20470;-40
2022/02/23 06:14:25;;;;;;;16.53;3.27;;;5.50;99.90;;;;;;5029383;28;20428;-40
2022/02/23 06:16:51;;;;;;;7.10;2.93;;;5.50;99.90;;;;;;5029419;28;20468;-41
2022/02/23 06:19:17;;;;;;;9.30;3.73;;;5.50;99.90;;;;;;5027230;28;20973;-40
2022/02/23 06:21:42;;;;;;;7.33;3.63;;;5.60;99.90;;;;;;5022322;28;20202;-40
2022/02/23 06:24:08;;;;;;;14.07;3.93;;;5.40;99.90;;;;;;5029118;28;20320;-39
2022/02/23 06:26:34;;;;;;;11.53;3.60;;;5.30;99.90;;;;;;5029462;28;20243;-40
2022/02/23 06:29:00;;;;;;;11.10;5.70;;;5.50;99.90;;;;;;5029341;28;20638;-39
2022/02/23 06:31:26;;;;;;;12.70;4.30;;;5.40;99.90;;;;;;5028641;28;20428;-40
2022/02/23 06:33:52;;;;;;;7.57;3.87;;;5.30;99.90;;;;;;5029347;28;20951;-40
2022/02/23 06:36:18;;;;;;;13.67;5.80;;;5.30;99.90;;;;;;5016994;28;20711;-40
2022/02/23 06:38:44;;;;;;;18.20;4.33;;;5.20;99.90;;;;;;5028995;28;20210;-43
2022/02/23 06:41:13;;;;;;;8.40;4.17;;;5.20;99.90;;;;;;5025218;28;20198;-40
2022/02/23 06:43:40;;;;;;;8.77;3.60;;;5.30;99.90;;;;;;5026348;28;20424;-41
2022/02/23 06:46:06;;;;;;;10.33;4.10;;;5.40;99.90;;;;;;5028778;28;20421;-40
2022/02/23 06:48:33;;;;;;;7.63;3.50;;;5.40;99.90;;;;;;5029230;28;20417;-40
2022/02/23 06:50:59;;;;;;;10.60;4.27;;;5.20;99.90;;;;;;5015876;28;20436;-40
2022/02/23 06:53:25;;;;;;;15.30;4.27;;;5.30;99.90;;;;;;5026105;28;20417;-43
2022/02/23 06:55:52;;;;;;;11.73;4.47;;;5.40;99.90;;;;;;5021788;28;20439;-41
2022/02/23 06:58:18;;;;;;;17.90;4.30;;;5.40;99.90;;;;;;5028630;28;20445;-41
2022/02/23 07:00:44;;;;;;;12.30;4.00;;;5.20;99.90;;;;;;5028022;28;20421;-40
2022/02/23 07:03:11;;;;;;;13.47;4.50;;;5.40;99.90;;;;;;5028093;28;20951;-41
2022/02/23 07:05:37;;;;;;;17.97;3.93;;;5.30;99.90;;;;;;5025068;28;21035;-40
2022/02/23 07:08:06;;;;;;;11.87;4.60;;;5.20;99.90;;;;;;5026707;28;20422;-42
2022/02/23 07:10:32;;;;;;;13.67;4.27;;;5.30;99.90;;;;;;5027402;28;20409;-41
2022/02/23 07:13:00;;;;;;;6.67;3.60;;;5.50;99.90;;;;;;5026907;28;20425;-40
2022/02/23 07:15:27;;;;;;;16.63;4.27;;;5.60;99.90;;;;;;5027111;28;20516;-42
2022/02/23 07:17:53;;;;;;;10.10;3.43;;;5.30;99.90;;;;;;5029096;28;20425;-40
2022/02/23 07:20:19;;;;;;;12.23;4.33;;;5.50;99.90;;;;;;5025744;28;21013;-40
2022/02/23 07:22:45;;;;;;;5.97;3.70;;;5.40;99.90;;;;;;5028076;28;20500;-43
2022/02/23 07:25:12;;;;;;;7.77;3.83;;;5.80;99.90;;;;;;5032271;28;20506;-40
2022/02/23 07:27:38;;;;;;;6.80;3.80;;;5.80;99.90;;;;;;5032614;28;20425;-40
2022/02/23 07:30:07;;;;;;;10.13;4.07;;;5.80;99.90;;;;;;5031775;28;20440;-40
2022/02/23 07:32:33;;;;;;;8.63;4.07;;;5.70;99.90;;;;;;5032270;28;20429;-40
2022/02/23 07:35:00;;;;;;;11.27;4.10;;;5.80;99.90;;;;;;5030073;28;20425;-40
2022/02/23 07:37:26;;;;;;;8.53;4.40;;;5.70;99.90;;;;;;5022077;28;20426;-40
2022/02/23 07:40:00;;;;;;;9.83;4.20;;;5.90;99.90;;;;;;5025021;28;21597;-40
2022/02/23 07:42:26;;;;;;;8.17;3.83;;;5.90;99.90;;;;;;5032260;28;20784;-40
2022/02/23 07:44:52;;;;;;;8.87;3.97;;;6.10;99.90;;;;;;5030601;28;20436;-40
2022/02/23 07:47:18;;;;;;;10.27;4.10;;;6.30;99.90;;;;;;5032163;28;20429;-41
2022/02/23 07:49:49;;;;;;;11.47;4.87;;;6.60;99.90;;;;;;5031678;28;20209;-40
2022/02/23 07:52:18;;;;;;;9.07;3.97;;;6.90;99.90;;;;;;5020648;28;20947;-40
2022/02/23 07:54:44;;;;;;;9.57;4.20;;;7.00;99.90;;;;;;5023535;28;20448;-40
2022/02/23 07:57:10;;;;;;;15.83;4.47;;;7.10;99.90;;;;;;5032314;28;20611;-42
2022/02/23 07:59:36;;;;;;;13.83;4.07;;;7.40;99.90;;;;;;5031427;28;20420;-41
2022/02/23 08:02:02;;;;;;;8.17;3.90;;;7.60;99.90;;;;;;5035231;28;20468;-39
2022/02/23 08:04:28;;;;;;;7.83;3.63;;;7.80;99.90;;;;;;5050013;28;20236;-40
2022/02/23 08:06:55;;;;;;;15.60;4.87;;;8.00;99.90;;;;;;5016877;28;20908;-40
2022/02/23 08:09:21;;;;;;;12.30;4.30;;;8.10;99.90;;;;;;5027656;28;20528;-40
2022/02/23 08:11:46;;;;;;;9.97;4.57;;;8.50;99.90;;;;;;5027810;28;20909;-41
2022/02/23 08:14:12;;;;;;;9.00;4.60;;;8.40;99.90;;;;;;5026308;28;20190;-40
2022/02/23 08:19:37;;;;;;;7.70;4.80;;;9.00;99.90;;;;;;5031612;28;20283;-42
2022/02/23 08:22:11;;;;;;;9.33;4.43;;;9.40;99.90;;;;;;5019117;28;20472;-43
2022/02/23 08:24:43;;;;;;;12.87;4.53;;;9.50;99.90;;;;;;5031000;28;20464;-40
2022/02/23 08:27:12;;;;;;;9.73;4.77;;;9.70;99.90;;;;;;5031478;28;20433;-40
2022/02/23 08:29:40;;;;;;;8.60;5.00;;;10.20;99.90;;;;;;5030905;28;20844;-42
2022/02/23 08:32:08;;;;;;;12.67;4.67;;;10.10;99.90;;;;;;5031278;28;20444;-40
2022/02/23 08:34:35;;;;;;;8.70;4.67;;;10.30;99.90;;;;;;5031537;28;20441;-40
2022/02/23 08:37:02;;;;;;;11.63;4.60;;;10.30;99.90;;;;;;5023147;28;20443;-40
2022/02/23 08:39:29;;;;;;;10.37;4.77;;;10.60;99.90;;;;;;5030909;28;20440;-40
2022/02/23 08:41:55;;;;;;;8.40;4.40;;;10.70;99.90;;;;;;5030435;28;20874;-41
2022/02/23 08:44:21;;;;;;;16.33;5.43;;;10.70;99.90;;;;;;5031098;28;20514;-41
2022/02/23 08:46:48;;;;;;;11.67;5.43;;;10.80;99.90;;;;;;5042885;28;20460;-42
2022/02/23 08:49:14;;;;;;;7.70;4.50;;;11.00;99.90;;;;;;5038986;28;20190;-41
2022/02/23 08:51:44;;;;;;;13.70;4.70;;;11.00;99.90;;;;;;5019708;28;20441;-41
2022/02/23 08:54:11;;;;;;;13.60;4.77;;;11.10;99.90;;;;;;5029725;28;20444;-40
2022/02/23 08:56:37;;;;;;;12.10;4.87;;;11.40;99.90;;;;;;5030882;28;20433;-42
2022/02/23 08:59:03;;;;;;;9.43;4.93;;;11.10;99.90;;;;;;5030669;28;20999;-41
2022/02/23 09:01:32;;;;;;;8.50;3.90;;;11.20;99.90;;;;;;5030282;28;20459;-40
2022/02/23 09:04:01;;;;;;;9.73;5.00;;;11.40;99.90;;;;;;5030625;28;20182;-41
2022/02/23 09:06:27;;;;;;;8.67;4.83;;;11.40;99.90;;;;;;5021744;28;20434;-41
2022/02/23 09:08:53;;;;;;;10.80;5.10;;;11.80;99.90;;;;;;5030504;28;20827;-41
2022/02/23 09:11:19;;;;;;;18.73;5.40;;;11.70;99.90;;;;;;5029843;28;20444;-40
2022/02/23 09:13:44;;;;;;;7.53;3.93;;;11.40;99.90;;;;;;5030583;28;20249;-41
2022/02/23 09:16:10;;;;;;;7.47;4.40;;;11.60;99.90;;;;;;5030302;28;20932;-40
2022/02/23 09:18:36;;;;;;;7.07;3.60;;;11.80;99.90;;;;;;5030377;28;20183;-40
2022/02/23 09:21:02;;;;;;;10.50;4.33;;;12.00;99.90;;;;;;5032507;28;20215;-40
2022/02/23 09:23:28;;;;;;;8.47;4.60;;;12.20;99.90;;;;;;5023898;28;20202;-40
2022/02/23 09:25:57;;;;;;;7.90;4.10;;;12.10;99.90;;;;;;5030209;28;20508;-40
2022/02/23 09:28:23;;;;;;;10.13;4.13;;;12.00;99.90;;;;;;5030362;28;20491;-42
2022/02/23 09:30:49;;;;;;;11.27;4.63;;;12.20;99.90;;;;;;5029692;28;20456;-43
2022/02/23 09:33:15;;;;;;;9.33;4.23;;;12.00;99.90;;;;;;5030075;28;20465;-42
2022/02/23 09:35:44;;;;;;;14.83;4.70;;;11.90;99.90;;;;;;5028531;28;20819;-42
2022/02/23 09:38:11;;;;;;;12.93;4.80;;;12.00;99.90;;;;;;5022703;28;20187;-40
2022/02/23 09:40:38;;;;;;;13.33;4.37;;;12.30;99.90;;;;;;5028745;28;21140;-40
2022/02/23 09:43:04;;;;;;;9.27;4.30;;;12.60;99.90;;;;;;5029932;28;20457;-41
2022/02/23 09:45:30;;;;;;;12.43;4.23;;;12.50;99.90;;;;;;5029969;28;20424;-40
2022/02/23 09:47:56;;;;;;;7.93;4.77;;;12.70;99.90;;;;;;5029740;28;20181;-39
2022/02/23 09:50:22;;;;;;;8.80;5.10;;;12.90;99.90;;;;;;5029223;28;20436;-40
2022/02/23 09:52:52;;;;;;;9.57;4.80;;;13.20;99.90;;;;;;5022318;28;20437;-40
2022/02/23 09:55:20;;;;;;;9.63;4.27;;;13.20;99.90;;;;;;5029663;28;20193;-39
2022/02/23 09:57:47;;;;;;;10.70;4.37;;;13.20;99.90;;;;;;5024917;28;20528;-40
2022/02/23 10:00:16;;;;;;;11.43;4.70;;;13.20;99.90;;;;;;5025897;28;20476;-40
2022/02/23 10:02:42;;;;;;;12.17;3.97;;;13.30;99.90;;;;;;5022396;28;20473;-40
2022/02/23 10:05:09;;;;;;;9.10;4.30;;;13.50;99.90;;;;;;5027361;28;20426;-41
2022/02/23 10:07:40;;;;;;;10.60;3.73;;;13.50;99.90;;;;;;5018554;28;20179;-40
2022/02/23 10:10:08;;;;;;;11.13;4.57;;;13.60;99.90;;;;;;5026985;28;20476;-40
2022/02/23 10:12:36;;;;;;;12.30;4.20;;;13.20;99.90;;;;;;5028141;28;20520;-41
2022/02/23 10:15:19;;;;;;;9.83;3.43;;;13.20;99.90;;;;;;5025643;28;20806;-41
2022/02/23 10:17:47;;;;;;;12.97;4.53;;;12.90;99.90;;;;;;5022970;28;20421;-40
2022/02/23 10:20:27;;;;;;;9.63;3.73;;;13.00;99.90;;;;;;5024364;28;20516;-41
2022/02/23 10:22:58;;;;;;;8.47;3.90;;;13.00;99.90;;;;;;5012596;28;20886;-40
2022/02/23 10:25:30;;;;;;;6.37;3.57;;;13.10;99.90;;;;;;5028251;28;20425;-40
2022/02/23 10:28:18;;;;;;;7.57;3.40;;;13.20;99.90;;;;;;5028429;28;20476;-40
2022/02/23 10:31:09;;;;;;;8.93;3.50;;;13.30;99.90;;;;;;5023884;28;20920;-41
2022/02/23 10:33:39;;;;;;;8.87;3.43;;;13.30;99.90;;;;;;5028383;28;20421;-42
2022/02/23 10:36:11;;;;;;;14.80;4.17;;;13.20;99.90;;;;;;5027080;28;20432;-40
2022/02/23 10:38:51;;;;;;;11.03;3.30;;;13.30;99.90;;;;;;5021919;28;20508;-40
2022/02/23 10:41:26;;;;;;;7.53;3.13;;;13.60;99.90;;;;;;5024703;28;20462;-40
2022/02/23 10:43:52;;;;;;;14.10;3.77;;;13.80;99.90;;;;;;5029222;28;20432;-43
2022/02/23 10:46:19;;;;;;;9.70;4.30;;;13.80;99.90;;;;;;5028838;28;20524;-41
2022/02/23 10:48:55;;;;;;;8.40;3.40;;;13.60;99.90;;;;;;5029084;28;21015;-40
2022/02/23 10:51:27;;;;;;;9.23;4.33;;;13.70;99.90;;;;;;5024863;28;20545;-40
2022/02/23 10:54:01;;;;;;;9.60;3.80;;;13.90;99.90;;;;;;5027297;28;20421;-40
2022/02/23 10:56:29;;;;;;;7.73;3.03;;;13.80;99.90;;;;;;5032866;28;20428;-40
2022/02/23 10:59:11;;;;;;;9.50;3.80;;;13.40;99.90;;;;;;5032981;28;20498;-40
2022/02/23 11:01:38;;;;;;;7.80;3.73;;;13.40;99.90;;;;;;5032284;28;21164;-42
2022/02/23 11:04:05;;;;;;;7.37;3.03;;;13.20;99.90;;;;;;5026401;28;20521;-40
2022/02/23 11:06:32;;;;;;;13.40;3.97;;;13.10;99.90;;;;;;5024763;28;20434;-39
2022/02/23 11:08:57;;;;;;;8.77;4.00;;;12.70;99.90;;;;;;5028167;28;20439;-42
2022/02/23 11:11:26;;;;;;;8.87;3.50;;;12.70;99.90;;;;;;5029950;28;20897;-42
2022/02/23 11:13:52;;;;;;;8.23;3.27;;;12.60;99.90;;;;;;5031870;28;20189;-40
2022/02/23 11:16:19;;;;;;;6.90;3.10;;;12.70;99.90;;;;;;5031805;28;21152;-39
2022/02/23 11:18:50;;;;;;;7.90;2.93;;;12.60;99.90;;;;;;5030094;28;20805;-40
2022/02/23 11:21:18;;;;;;;7.77;3.20;;;12.40;99.90;;;;;;5031833;28;20433;-41
2022/02/23 11:23:46;;;;;;;14.70;3.30;;;12.10;99.90;;;;;;5024940;28;20502;-40
2022/02/23 11:26:16;;;;;;;7.57;3.13;;;11.70;99.90;;;;;;5028148;28;20459;-41
2022/02/23 11:28:53;;;;;;;6.57;3.23;;;11.90;99.90;;;;;;5030756;28;20504;-40
2022/02/23 11:31:20;;;;;;;6.47;3.27;;;12.00;99.90;;;;;;5031897;28;20507;-40
2022/02/23 11:33:58;;;;;;;8.53;3.30;;;11.90;99.90;;;;;;5028735;28;20428;-40
2022/02/23 11:36:31;;;;;;;9.60;3.00;;;12.10;99.90;;;;;;5031443;28;20420;-40
2022/02/23 11:39:00;;;;;;;7.60;2.57;;;12.20;99.90;;;;;;5023160;28;20432;-40
2022/02/23 11:41:31;;;;;;;11.13;3.20;;;12.40;99.90;;;;;;5030244;28;20515;-41
2022/02/23 11:44:09;;;;;;;10.00;2.27;;;12.30;99.90;;;;;;5031005;28;20512;-44
2022/02/23 11:46:57;;;;;;;9.23;2.23;;;12.50;99.90;;;;;;5025228;28;20430;-41
2022/02/23 11:55:31;;;;;;;9.40;2.13;;;12.80;98.10;;;;;;5029407;28;20912;-40
2022/02/23 11:58:16;;;;;;;6.40;2.40;;;13.10;97.90;;;;;;5030458;28;20920;-40
2022/02/23 12:00:42;;;;;;;6.73;2.13;;;13.30;98.20;;;;;;5029773;28;20428;-43
2022/02/23 12:03:26;;;;;;;5.03;2.37;;;13.50;98.70;;;;;;5030477;28;20523;-41
2022/02/23 12:05:52;;;;;;;4.70;1.63;;;13.80;97.70;;;;;;5030135;28;20724;-42
2022/02/23 12:08:47;;;;;;;4.27;1.87;;;14.00;95.10;;;;;;5042397;28;20434;-41
2022/02/23 12:11:35;;;;;;;4.63;1.73;;;13.80;93.70;;;;;;5021259;28;20194;-40
2022/02/23 12:14:01;;;;;;;4.00;2.00;;;13.80;95.00;;;;;;5020864;28;20790;-40
2022/02/23 12:16:33;;;;;;;8.50;2.10;;;13.60;94.90;;;;;;5031556;28;20421;-40
2022/02/23 12:19:04;;;;;;;5.23;1.80;;;13.70;96.10;;;;;;5031855;28;20529;-40
2022/02/23 12:21:37;;;;;;;4.63;1.40;;;13.90;95.20;;;;;;5034787;28;20463;-41
2022/02/23 12:24:04;;;;;;;4.50;1.60;;;14.10;94.50;;;;;;5020946;28;20433;-42
2022/02/23 12:26:36;;;;;;;6.43;2.13;;;14.40;93.90;;;;;;5031059;28;20788;-40
2022/02/23 12:29:04;;;;;;;4.70;2.10;;;14.60;94.40;;;;;;5031769;28;20797;-40
2022/02/23 12:31:33;;;;;;;4.87;1.50;;;14.60;94.20;;;;;;5030704;28;21013;-41
2022/02/23 12:34:09;;;;;;;4.87;1.80;;;14.50;93.30;;;;;;5031514;28;20429;-41
2022/02/23 12:36:43;;;;;;;5.00;1.53;;;14.40;92.80;;;;;;5029830;28;20437;-40
2022/02/23 12:39:12;;;;;;;8.10;2.20;;;14.20;92.90;;;;;;5019205;28;20444;-40
2022/02/23 12:41:38;;;;;;;4.10;1.70;;;14.10;92.90;;;;;;5026495;28;20968;-41
2022/02/23 12:44:14;;;;;;;7.77;2.07;;;14.10;93.30;;;;;;5031006;28;20413;-40
2022/02/23 12:46:45;;;;;;;5.90;1.93;;;14.00;93.80;;;;;;5031142;28;20446;-41
2022/02/23 12:49:11;;;;;;;7.27;1.70;;;14.00;93.20;;;;;;5030172;28;20505;-40
2022/02/23 12:51:38;;;;;;;3.70;1.30;;;14.10;93.10;;;;;;5031479;28;21012;-42
2022/02/23 12:54:08;;;;;;;4.37;1.77;;;14.00;92.50;;;;;;5018581;28;20433;-40
2022/02/23 12:56:46;;;;;;;6.33;2.07;;;13.90;93.00;;;;;;5030862;28;20429;-40
2022/02/23 12:59:17;;;;;;;4.80;1.43;;;14.00;93.50;;;;;;5018856;28;20428;-40
2022/02/23 13:01:46;;;;;;;4.70;1.90;;;14.00;93.40;;;;;;5030088;28;20552;-40